Time;durP1;ratioP1;P1;durP2;ratioP2;P2;SDS_P1;SDS_P2;PMS_P1;PMS_P2;Temp;Humidity;BMP_temperature;BMP_pressure;BME280_temperature;BME280_humidity;BME280_pressure;Samples;Min_cycle;Max_cycle;Signal;HPM_P1;HPM_P2
2022/10/28 00:01:51;;;;;;;10.20;7.22;;;;;;;16.58;89.73;100799.97;10433871;28;20044;-72
2022/10/28 00:06:52;;;;;;;10.70;7.38;;;;;;;16.51;89.66;100785.44;10432620;28;20052;-74
2022/10/28 00:11:53;;;;;;;8.70;6.35;;;;;;;16.44;90.12;100777.16;10429855;28;20056;-72
2022/10/28 00:16:54;;;;;;;9.70;7.15;;;;;;;16.52;90.09;100811.34;10436677;28;20510;-74
2022/10/28 00:21:56;;;;;;;11.20;7.45;;;;;;;16.56;89.18;100797.44;10433430;28;20195;-74
2022/10/28 00:26:57;;;;;;;12.07;6.93;;;;;;;16.59;89.15;100789.09;10434396;28;20049;-73
2022/10/28 00:31:58;;;;;;;7.50;6.22;;;;;;;16.56;88.92;100800.13;10417414;28;20064;-71
2022/10/28 00:37:00;;;;;;;11.63;7.18;;;;;;;16.59;89.06;100799.84;10390743;28;20057;-73
2022/10/28 00:42:02;;;;;;;8.90;6.82;;;;;;;16.60;88.20;100812.28;10393572;28;20060;-71
2022/10/28 00:47:08;;;;;;;8.52;6.57;;;;;;;16.61;88.39;100803.22;10394933;28;20041;-71
2022/10/28 00:52:15;;;;;;;8.70;7.10;;;;;;;16.47;88.50;100795.66;10390737;28;20053;-71
2022/10/28 00:57:20;;;;;;;7.35;6.50;;;;;;;16.52;89.37;100793.34;10395252;28;20053;-73
2022/10/28 01:02:21;;;;;;;9.45;7.00;;;;;;;16.56;87.83;100800.13;10391629;28;20052;-72
2022/10/28 01:07:23;;;;;;;11.65;6.60;;;;;;;16.49;87.74;100795.50;10391877;28;23191;-72
2022/10/28 01:13:07;;;;;;;9.93;6.82;;;;;;;16.54;88.16;100793.22;10396447;28;20049;-73
2022/10/28 01:18:14;;;;;;;8.77;7.03;;;;;;;16.45;89.43;100781.50;10392123;28;20817;-73
2022/10/28 01:23:43;;;;;;;10.63;7.30;;;;;;;16.47;89.28;100784.91;10391358;28;20056;-71
2022/10/28 01:29:04;;;;;;;6.95;5.70;;;;;;;16.42;89.49;100777.31;10389601;28;20076;-71
2022/10/28 01:34:09;;;;;;;9.55;6.15;;;;;;;16.41;89.87;100766.69;10404493;28;20079;-71
2022/10/28 01:39:23;;;;;;;7.80;6.35;;;;;;;16.47;89.98;100776.84;10385255;28;20050;-71
2022/10/28 01:44:36;;;;;;;8.73;6.32;;;;;;;16.52;89.22;100779.91;10394590;28;20056;-70
2022/10/28 01:49:44;;;;;;;8.98;6.45;;;;;;;16.58;89.29;100787.38;10395569;28;20754;-71
2022/10/28 01:54:48;;;;;;;6.43;5.80;;;;;;;16.58;88.94;100779.31;10394366;28;20069;-70
2022/10/28 01:59:51;;;;;;;7.95;6.50;;;;;;;16.52;89.21;100779.91;10395461;28;20079;-72
2022/10/28 02:05:26;;;;;;;9.68;8.15;;;;;;;16.44;89.83;100769.09;10391033;28;20065;-71
2022/10/28 02:10:35;;;;;;;10.32;5.95;;;;;;;16.42;90.06;100765.69;10388569;28;20667;-72
2022/10/28 02:16:06;;;;;;;10.45;6.38;;;;;;;16.41;89.37;100769.38;10422502;28;20045;-71
2022/10/28 02:21:38;;;;;;;8.15;6.35;;;;;;;16.43;89.91;100762.00;10428334;28;20064;-71
2022/10/28 02:26:50;;;;;;;8.35;5.78;;;;;;;16.37;89.98;100751.88;10428029;28;20040;-74
2022/10/28 02:31:57;;;;;;;6.40;5.70;;;;;;;16.52;89.18;100758.44;10413939;28;20041;-72
2022/10/28 02:37:01;;;;;;;13.52;6.30;;;;;;;16.48;88.99;100746.28;10430489;28;20049;-72
2022/10/28 02:42:25;;;;;;;7.93;5.55;;;;;;;16.43;89.18;100762.84;10430447;28;20052;-72
2022/10/28 02:47:32;;;;;;;9.13;5.60;;;;;;;16.49;88.62;100749.81;10430326;28;20044;-71
2022/10/28 02:52:35;;;;;;;9.23;5.93;;;;;;;16.41;88.93;100745.22;10416402;28;20041;-71
2022/10/28 02:57:42;;;;;;;8.25;6.35;;;;;;;16.38;88.92;100737.44;10431991;28;20047;-70
2022/10/28 03:02:43;;;;;;;12.65;6.35;;;;;;;16.32;89.35;100741.56;10456720;28;20032;-74
2022/10/28 03:07:45;;;;;;;10.90;6.10;;;;;;;16.33;89.78;100723.59;10481107;28;20105;-74
2022/10/28 03:12:46;;;;;;;9.18;6.00;;;;;;;16.32;89.60;100722.75;10475720;28;20055;-72
2022/10/28 03:17:47;;;;;;;12.88;6.35;;;;;;;16.29;90.25;100727.56;10443940;28;20056;-74
2022/10/28 03:22:48;;;;;;;8.73;5.88;;;;;;;16.30;89.80;100723.91;10506967;28;20144;-73
2022/10/28 03:27:50;;;;;;;7.53;5.38;;;;;;;16.32;89.33;100721.91;10441876;28;20072;-70
2022/10/28 03:32:51;;;;;;;6.70;5.82;;;;;;;16.34;89.53;100731.50;10427560;28;20056;-72
2022/10/28 03:37:53;;;;;;;9.60;5.88;;;;;;;16.43;89.51;100727.09;10443788;28;20104;-71
2022/10/28 03:42:54;;;;;;;7.82;5.53;;;;;;;16.46;88.84;100748.28;10436106;28;20079;-70
2022/10/28 03:47:56;;;;;;;9.23;7.05;;;;;;;16.47;89.57;100763.41;10421263;28;20045;-72
2022/10/28 03:52:58;;;;;;;9.68;6.25;;;;;;;16.47;89.03;100774.16;10434809;28;20048;-71
2022/10/28 03:58:00;;;;;;;8.52;6.18;;;;;;;16.48;89.74;100762.41;10420796;28;20054;-72
2022/10/28 04:03:01;;;;;;;7.82;6.10;;;;;;;16.41;90.39;100707.59;10432760;28;20044;-73
2022/10/28 04:08:02;;;;;;;6.60;5.38;;;;;;;16.17;91.78;100703.63;10438062;28;20044;-71
2022/10/28 04:13:05;;;;;;;8.25;6.43;;;;;;;16.16;91.71;100683.13;10437957;28;20044;-73
2022/10/28 04:18:06;;;;;;;11.55;6.88;;;;;;;16.18;91.05;100682.97;10420084;28;20044;-72
2022/10/28 04:23:13;;;;;;;10.20;6.18;;;;;;;16.13;90.81;100733.59;10420024;28;20052;-72
2022/10/28 04:28:14;;;;;;;8.90;6.28;;;;;;;16.01;94.01;100732.94;10435478;28;20052;-72
2022/10/28 04:33:15;;;;;;;11.05;6.40;;;;;;;16.12;92.81;100715.78;10434786;28;20056;-75
2022/10/28 04:38:16;;;;;;;8.35;6.15;;;;;;;16.19;92.68;100696.25;10426333;28;20059;-73
2022/10/28 04:43:18;;;;;;;7.32;5.93;;;;;;;16.21;92.35;100694.28;10428864;28;20096;-71
2022/10/28 04:48:19;;;;;;;8.63;6.70;;;;;;;16.17;92.14;100682.13;10417947;28;20325;-73
2022/10/28 04:53:21;;;;;;;10.18;6.93;;;;;;;16.13;92.16;100680.72;10431029;28;20044;-70
2022/10/28 04:58:23;;;;;;;8.82;6.32;;;;;;;16.09;92.44;100679.34;10428439;28;20225;-71
2022/10/28 05:03:24;;;;;;;8.52;6.63;;;;;;;16.18;91.97;100669.53;10433329;28;20551;-73
2022/10/28 05:08:26;;;;;;;9.45;5.97;;;;;;;16.24;90.85;100661.75;10414195;28;20056;-72
2022/10/28 05:13:27;;;;;;;8.95;6.05;;;;;;;16.14;91.23;100671.69;10427978;28;20443;-71
2022/10/28 05:18:29;;;;;;;9.50;5.57;;;;;;;16.18;90.73;100678.47;10432221;28;20052;-72
2022/10/28 05:23:30;;;;;;;7.93;5.50;;;;;;;16.18;90.08;100672.22;10420437;28;20048;-75
2022/10/28 05:28:31;;;;;;;10.55;5.78;;;;;;;16.20;90.07;100671.09;10437379;28;20267;-73
2022/10/28 05:33:32;;;;;;;9.68;5.32;;;;;;;16.21;90.04;100677.28;10436993;28;20718;-72
2022/10/28 05:38:34;;;;;;;9.48;5.57;;;;;;;16.14;89.57;100665.44;10433423;28;20052;-74
2022/10/28 05:43:35;;;;;;;10.60;5.32;;;;;;;16.15;89.67;100659.94;10435626;28;20463;-74
2022/10/28 05:48:36;;;;;;;9.18;5.78;;;;;;;16.14;89.91;100660.94;10431271;28;20052;-72
2022/10/28 05:53:37;;;;;;;6.55;5.40;;;;;;;16.09;89.62;100663.22;10417308;28;20079;-72
2022/10/28 05:58:39;;;;;;;9.68;4.70;;;;;;;16.11;89.58;100672.00;10413967;28;20407;-72
2022/10/28 06:03:40;;;;;;;8.93;5.20;;;;;;;16.16;90.09;100679.59;10413251;28;20052;-71
2022/10/28 06:08:41;;;;;;;9.15;5.15;;;;;;;16.19;89.57;100687.34;10413100;28;20372;-70
2022/10/28 06:13:43;;;;;;;8.32;5.55;;;;;;;16.23;89.47;100686.06;10397445;28;20049;-72
2022/10/28 06:18:44;;;;;;;9.98;6.07;;;;;;;16.25;88.29;100684.91;10415949;28;20049;-71
2022/10/28 06:23:45;;;;;;;7.68;5.43;;;;;;;16.25;88.01;100695.63;10412251;28;20052;-73
2022/10/28 06:28:47;;;;;;;8.80;5.07;;;;;;;16.26;88.90;100694.66;10417162;28;20037;-73
2022/10/28 06:33:48;;;;;;;12.20;5.20;;;;;;;16.30;89.54;100686.28;10416732;28;20059;-74
2022/10/28 06:38:52;;;;;;;9.43;5.07;;;;;;;16.36;88.65;100691.06;10419874;28;20049;-71
2022/10/28 06:43:53;;;;;;;7.43;6.17;;;;;;;16.35;89.31;100690.22;10419645;28;20087;-72
2022/10/28 06:48:54;;;;;;;10.40;6.72;;;;;;;16.38;88.29;100695.31;10412917;28;20530;-70
2022/10/28 06:53:56;;;;;;;11.57;5.90;;;;;;;16.43;88.67;100697.53;10413426;28;20048;-73
2022/10/28 06:58:58;;;;;;;17.58;5.82;;;;;;;16.53;88.32;100706.38;10393654;28;20163;-75
2022/10/28 07:03:59;;;;;;;8.10;5.43;;;;;;;16.53;88.01;100706.38;10394301;28;20063;-70
2022/10/28 07:09:00;;;;;;;11.07;5.32;;;;;;;16.56;88.37;100705.25;10410137;28;20049;-70
2022/10/28 07:14:01;;;;;;;12.20;5.80;;;;;;;16.59;87.93;100704.94;10406080;28;20567;-73
2022/10/28 07:19:03;;;;;;;8.55;6.13;;;;;;;16.68;88.19;100713.91;10405997;28;20048;-69
2022/10/28 07:24:04;;;;;;;8.63;5.63;;;;;;;16.69;88.11;100718.28;10387400;28;20194;-69
2022/10/28 07:29:05;;;;;;;8.10;5.70;;;;;;;16.68;88.64;100727.34;10376120;28;20060;-70
2022/10/28 07:34:07;;;;;;;9.68;5.18;;;;;;;16.75;87.86;100733.81;10372974;28;20056;-74
2022/10/28 07:39:08;;;;;;;8.63;5.57;;;;;;;16.86;87.80;100725.53;10369713;28;20210;-71
2022/10/28 07:44:10;;;;;;;9.70;5.55;;;;;;;16.98;86.02;100738.75;10365869;28;20976;-72
2022/10/28 07:49:12;;;;;;;6.45;5.72;;;;;;;17.03;86.64;100728.41;10371917;28;20092;-70
2022/10/28 07:54:13;;;;;;;9.82;6.90;;;;;;;17.13;86.72;100737.25;10370642;28;20697;-68
2022/10/28 07:59:14;;;;;;;9.20;5.68;;;;;;;17.24;84.88;100734.31;10368536;28;20064;-69
2022/10/28 08:04:16;;;;;;;9.88;6.18;;;;;;;17.38;84.71;100729.38;10375027;28;20049;-72
2022/10/28 08:09:17;;;;;;;12.35;6.78;;;;;;;17.49;83.41;100721.06;10377272;28;20064;-71
2022/10/28 08:14:18;;;;;;;9.07;5.25;;;;;;;17.60;82.92;100736.09;10375577;28;20060;-69
2022/10/28 08:19:19;;;;;;;7.55;6.03;;;;;;;17.69;82.88;100731.63;10374997;28;20531;-70
2022/10/28 08:24:21;;;;;;;10.75;6.35;;;;;;;17.90;82.51;100744.75;10373855;28;20056;-70
2022/10/28 08:29:22;;;;;;;9.73;5.45;;;;;;;18.02;81.57;100743.44;10370584;28;20771;-67
2022/10/28 08:34:30;;;;;;;10.88;5.68;;;;;;;18.02;81.12;100738.91;10397661;28;20539;-72
2022/10/28 08:39:31;;;;;;;10.40;5.35;;;;;;;17.99;79.06;100733.84;10411481;28;20055;-68
2022/10/28 08:45:00;;;;;;;11.70;5.80;;;;;;;18.00;80.14;100724.75;10412975;28;20300;-70
2022/10/28 08:50:11;;;;;;;9.90;5.15;;;;;;;17.98;80.45;100726.75;10409874;28;20048;-69
2022/10/28 08:55:29;;;;;;;6.95;5.03;;;;;;;18.04;79.80;100735.22;10414408;28;20651;-68
2022/10/28 09:00:32;;;;;;;12.63;5.78;;;;;;;18.14;79.31;100744.03;10414176;28;20052;-68
2022/10/28 09:05:33;;;;;;;7.97;5.50;;;;;;;18.13;79.44;100734.25;10416593;28;20064;-67
2022/10/28 09:10:45;;;;;;;8.15;5.05;;;;;;;18.21;79.45;100736.97;10385071;28;20056;-67
2022/10/28 09:16:09;;;;;;;7.45;5.25;;;;;;;18.40;78.68;100743.94;10377282;28;20053;-70
2022/10/28 09:21:30;;;;;;;13.77;5.90;;;;;;;18.58;76.12;100743.84;10372335;28;20437;-71
2022/10/28 09:26:43;;;;;;;12.95;5.65;;;;;;;18.91;74.71;100743.94;10372343;28;20053;-69
2022/10/28 09:31:54;;;;;;;;;;;;;;;19.95;72.46;100746.94;10375095;28;20511;-70
2022/10/28 09:37:05;;;;;;;9.57;5.53;;;;;;;21.64;62.64;100736.50;10375325;28;19932;-71
2022/10/28 09:42:13;;;;;;;10.50;5.10;;;;;;;23.03;58.80;100731.19;10411953;28;20491;-73
2022/10/28 09:47:21;;;;;;;9.73;5.03;;;;;;;24.07;53.52;100737.91;10414192;28;20120;-73
2022/10/28 09:52:29;;;;;;;10.27;5.88;;;;;;;25.00;51.03;100712.91;10421231;28;20056;-72
2022/10/28 09:57:31;;;;;;;10.68;5.38;;;;;;;25.69;47.93;100724.44;10427831;28;20296;-70
2022/10/28 10:02:34;;;;;;;9.38;5.60;;;;;;;25.43;48.16;100724.47;10429317;28;20052;-72
2022/10/28 10:07:47;;;;;;;9.00;4.97;;;;;;;25.76;48.33;100729.88;10421348;28;20498;-70
2022/10/28 10:12:51;;;;;;;9.68;5.00;;;;;;;25.86;47.52;100727.56;10396481;28;20045;-72
2022/10/28 10:17:57;;;;;;;8.40;4.88;;;;;;;27.47;43.44;100740.44;10384622;28;20115;-71
2022/10/28 10:22:58;;;;;;;8.15;4.78;;;;;;;27.41;44.15;100728.47;10387834;28;20041;-72
2022/10/28 10:28:13;;;;;;;9.02;5.18;;;;;;;28.56;41.41;100724.28;10393007;28;20049;-71
2022/10/28 10:33:27;;;;;;;7.78;4.13;;;;;;;31.00;37.67;100708.47;10401039;28;20384;-72
2022/10/28 10:38:30;;;;;;;9.05;4.13;;;;;;;30.90;35.81;100712.94;10392405;28;20496;-70
2022/10/28 10:43:33;;;;;;;9.18;3.72;;;;;;;31.56;35.08;100699.47;10389338;28;20049;-70
2022/10/28 10:48:35;;;;;;;8.60;3.33;;;;;;;34.18;31.35;100699.19;10389609;28;20067;-73
2022/10/28 10:53:38;;;;;;;8.95;3.15;;;;;;;33.96;29.26;100691.09;10388807;28;20064;-71
2022/10/28 10:58:50;;;;;;;8.50;2.90;;;;;;;32.74;31.01;100683.56;10389153;28;20056;-72
2022/10/28 11:04:01;;;;;;;5.60;2.67;;;;;;;34.37;29.59;100682.16;10410838;28;20044;-72
2022/10/28 11:09:06;;;;;;;10.50;2.92;;;;;;;36.47;26.63;100677.41;10413215;28;20052;-71
2022/10/28 11:14:07;;;;;;;7.13;2.63;;;;;;;35.86;25.54;100673.81;10428175;28;20128;-72
2022/10/28 11:19:19;;;;;;;9.73;3.10;;;;;;;32.25;30.87;100676.16;10418142;28;20049;-73
2022/10/28 11:24:54;;;;;;;6.85;3.17;;;;;;;33.93;29.03;100665.94;10431145;28;20099;-73
2022/10/28 11:29:58;;;;;;;8.15;2.40;;;;;;;36.76;26.40;100657.25;10427246;28;20045;-72
2022/10/28 11:35:09;;;;;;;6.20;2.50;;;;;;;37.81;23.56;100640.94;10432895;28;20049;-74
2022/10/28 11:40:34;;;;;;;5.80;2.42;;;;;;;38.47;23.02;100648.69;10374438;28;20048;-74
2022/10/28 11:45:54;;;;;;;7.03;2.65;;;;;;;37.34;23.61;100639.81;10381000;28;20053;-73
2022/10/28 11:51:02;;;;;;;;;;;;;;;36.70;23.84;100634.25;10381450;28;20057;-73
2022/10/28 11:56:17;;;;;;;8.50;2.47;;;;;;;37.41;24.25;100606.97;10393735;28;21011;-72
2022/10/28 12:01:33;;;;;;;8.70;2.53;;;;;;;38.21;23.19;100612.94;10383870;28;20056;-73
2022/10/28 12:06:58;;;;;;;4.55;2.33;;;;;;;36.10;24.86;100612.22;10379496;28;20118;-71
2022/10/28 12:12:15;;;;;;;5.70;2.35;;;;;;;33.73;27.51;100601.28;10383462;28;20550;-70
2022/10/28 12:17:45;;;;;;;5.32;2.13;;;;;;;33.77;28.70;100607.91;10379717;28;20045;-72
2022/10/28 12:23:11;;;;;;;7.10;2.65;;;;;;;35.28;26.77;100590.38;10414015;28;20610;-72
2022/10/28 12:28:20;;;;;;;7.25;2.75;;;;;;;37.36;24.37;100586.78;10382646;28;20132;-73
2022/10/28 12:33:40;;;;;;;7.72;2.75;;;;;;;35.85;25.67;100588.25;10421318;28;20052;-73
2022/10/28 12:38:48;;;;;;;7.50;2.50;;;;;;;35.69;25.96;100573.66;10420370;28;20053;-74
2022/10/28 12:44:08;;;;;;;6.88;3.10;;;;;;;36.18;25.19;100570.06;10427322;28;20041;-74
2022/10/28 12:49:22;;;;;;;6.82;2.65;;;;;;;37.77;23.77;100567.66;10455438;28;20057;-73
2022/10/28 12:54:49;;;;;;;7.18;2.83;;;;;;;39.39;22.30;100551.63;10485750;28;20151;-73
2022/10/28 13:00:00;;;;;;;7.00;2.85;;;;;;;38.68;21.50;100549.91;10489599;28;20044;-74
2022/10/28 13:05:03;;;;;;;6.10;2.72;;;;;;;37.99;22.42;100542.06;10497706;28;20036;-75
2022/10/28 13:10:17;;;;;;;6.57;2.40;;;;;;;35.16;26.48;100554.69;10442919;28;20052;-72
2022/10/28 13:15:56;;;;;;;6.20;2.28;;;;;;;35.33;26.39;100554.41;10413332;28;20044;-74
2022/10/28 13:21:28;;;;;;;8.68;3.60;;;;;;;33.95;27.63;100556.91;10417681;28;20051;-73
2022/10/28 13:26:34;;;;;;;6.88;1.95;;;;;;;31.59;30.20;100566.91;10387340;28;21142;-70
2022/10/28 13:31:39;;;;;;;7.60;2.55;;;;;;;29.60;34.45;100544.88;10421073;28;20048;-72
2022/10/28 13:36:59;;;;;;;8.07;3.38;;;;;;;30.50;33.25;100553.44;10406313;28;20052;-72
2022/10/28 13:42:13;;;;;;;10.32;4.00;;;;;;;32.68;29.61;100550.41;10421023;28;20818;-72
2022/10/28 13:47:15;;;;;;;7.00;2.65;;;;;;;33.82;29.16;100543.63;10428847;28;20777;-73
2022/10/28 13:52:19;;;;;;;6.40;2.45;;;;;;;34.13;27.86;100544.50;10414392;28;20052;-71
2022/10/28 13:57:34;;;;;;;6.10;2.38;;;;;;;31.89;32.18;100549.94;10417631;28;20056;-71
2022/10/28 14:02:45;;;;;;;8.18;2.97;;;;;;;29.38;35.66;100547.44;10425531;28;20040;-72
2022/10/28 14:07:54;;;;;;;11.47;3.17;;;;;;;27.83;38.94;100540.03;10409613;28;20056;-73
2022/10/28 14:13:00;;;;;;;7.38;2.85;;;;;;;27.22;40.42;100540.91;10378708;28;20082;-72
2022/10/28 14:18:20;;;;;;;5.57;3.05;;;;;;;27.95;39.20;100544.69;10339650;28;20063;-72
2022/10/28 14:23:41;;;;;;;7.72;5.05;;;;;;;30.15;36.27;100548.16;10389492;28;20052;-73
2022/10/28 14:28:43;;;;;;;10.35;3.25;;;;;;;29.65;36.96;100548.78;10388157;28;20056;-72
2022/10/28 14:33:53;;;;;;;6.80;3.17;;;;;;;28.27;39.63;100552.66;10411060;28;20059;-72
2022/10/28 14:39:32;;;;;;;6.85;3.15;;;;;;;27.84;41.38;100558.06;10406547;28;20883;-74
2022/10/28 14:44:59;;;;;;;6.28;2.85;;;;;;;26.87;42.61;100550.50;10361104;28;20076;-74
2022/10/28 14:50:06;;;;;;;11.50;4.13;;;;;;;26.15;44.35;100555.44;10371569;28;20053;-73
2022/10/28 14:55:22;;;;;;;9.57;3.72;;;;;;;25.57;46.00;100540.81;10370266;28;20045;-69
2022/10/28 15:00:28;;;;;;;9.75;3.53;;;;;;;25.13;47.09;100556.84;10368706;28;20063;-69
2022/10/28 15:05:31;;;;;;;7.75;4.03;;;;;;;24.82;47.88;100546.63;10407958;28;20245;-71
2022/10/28 15:10:32;;;;;;;;;;;;;;;24.44;48.58;100549.91;10380827;28;20127;-72
2022/10/28 15:15:34;;;;;;;8.23;3.47;;;;;;;24.23;48.73;100557.22;10377792;28;19931;-71
2022/10/28 15:20:35;;;;;;;7.85;3.75;;;;;;;24.03;49.07;100557.16;10378893;28;20128;-70
2022/10/28 15:25:36;;;;;;;9.48;3.80;;;;;;;23.89;50.09;100561.72;10377059;28;20053;-70
2022/10/28 15:30:40;;;;;;;8.27;4.18;;;;;;;23.56;50.02;100556.97;10377123;28;20041;-71
2022/10/28 15:35:47;;;;;;;11.98;5.05;;;;;;;23.45;49.92;100560.25;10376340;28;20045;-70
2022/10/28 15:40:48;;;;;;;7.80;3.85;;;;;;;23.22;50.59;100565.97;10377157;28;20471;-70
2022/10/28 15:45:50;;;;;;;7.75;4.50;;;;;;;23.02;50.93;100565.81;10373600;28;20049;-71
2022/10/28 15:51:17;;;;;;;9.32;5.28;;;;;;;22.88;52.21;100568.41;10374005;28;20064;-70
2022/10/28 15:56:25;;;;;;;11.10;5.78;;;;;;;22.79;52.29;100569.59;10375257;28;20591;-70
2022/10/28 16:01:37;;;;;;;7.80;4.07;;;;;;;22.69;53.34;100566.38;10375049;28;20080;-71
2022/10/28 16:06:39;;;;;;;9.30;4.20;;;;;;;22.55;53.99;100566.25;10377198;28;20052;-73
2022/10/28 16:11:55;;;;;;;9.00;3.88;;;;;;;22.38;54.39;100572.97;10378192;28;20064;-69
2022/10/28 16:17:04;;;;;;;10.55;3.67;;;;;;;22.27;55.10;100568.03;10374973;28;22908;-74
2022/10/28 16:22:11;;;;;;;6.35;4.38;;;;;;;22.17;56.30;100574.63;10371903;28;20059;-71
2022/10/28 16:27:18;;;;;;;9.38;3.83;;;;;;;22.06;56.42;100584.06;10371638;28;20800;-72
2022/10/28 16:32:47;;;;;;;9.63;4.15;;;;;;;21.89;56.93;100583.47;10376903;28;20053;-69
2022/10/28 16:37:49;;;;;;;10.63;4.22;;;;;;;21.70;57.68;100590.31;10363011;28;20467;-70
2022/10/28 16:42:56;;;;;;;11.23;4.07;;;;;;;21.50;57.82;100589.22;10366956;28;20374;-68
2022/10/28 16:47:57;;;;;;;7.45;3.47;;;;;;;21.42;57.92;100592.81;10391425;28;20612;-69
2022/10/28 16:52:59;;;;;;;9.57;3.70;;;;;;;21.39;58.74;100593.19;10411985;28;20052;-69
2022/10/28 16:58:00;;;;;;;10.57;4.10;;;;;;;21.29;58.62;100587.22;10413899;28;20129;-70
2022/10/28 17:03:02;;;;;;;9.20;4.00;;;;;;;21.29;58.69;100598.88;10413600;28;20079;-70
2022/10/28 17:08:04;;;;;;;8.63;3.97;;;;;;;21.19;59.21;100599.16;10411956;28;20116;-69
2022/10/28 17:13:14;;;;;;;10.10;4.70;;;;;;;21.13;59.57;100608.00;10413441;28;20193;-71
2022/10/28 17:18:15;;;;;;;9.98;4.93;;;;;;;21.09;59.59;100603.16;10412578;28;20067;-69
2022/10/28 17:23:17;;;;;;;10.45;5.55;;;;;;;21.02;60.35;100595.78;10391612;28;20154;-69
2022/10/28 17:28:18;;;;;;;11.75;5.88;;;;;;;21.02;60.22;100609.28;10396451;28;20053;-71
2022/10/28 17:33:19;;;;;;;11.98;4.90;;;;;;;20.91;60.48;100611.59;10411922;28;20075;-69
2022/10/28 17:38:21;;;;;;;10.23;4.93;;;;;;;20.81;61.30;100618.13;10413560;28;20056;-70
2022/10/28 17:43:23;;;;;;;12.43;5.50;;;;;;;20.69;61.29;100624.97;10390633;28;20108;-68
2022/10/28 17:48:24;;;;;;;13.20;6.25;;;;;;;20.63;61.98;100637.31;10370888;28;20051;-70
2022/10/28 17:53:25;;;;;;;13.88;5.28;;;;;;;20.60;61.93;100647.66;10397273;28;20564;-69
2022/10/28 17:58:27;;;;;;;12.32;4.65;;;;;;;20.53;62.06;100642.13;10419102;28;20067;-68
2022/10/28 18:03:29;;;;;;;10.93;4.82;;;;;;;20.53;62.68;100650.22;10415497;28;20143;-69
2022/10/28 18:08:40;;;;;;;8.88;4.40;;;;;;;20.54;62.77;100653.78;10403289;28;20891;-68
2022/10/28 18:13:43;;;;;;;11.57;3.88;;;;;;;20.52;62.81;100667.47;10413479;28;20082;-70
2022/10/28 18:18:45;;;;;;;17.30;5.13;;;;;;;20.48;63.24;100656.19;10414117;28;20059;-70
2022/10/28 18:23:51;;;;;;;8.32;4.22;;;;;;;20.41;63.48;100655.22;10416774;28;20044;-69
2022/10/28 18:28:53;;;;;;;10.30;4.95;;;;;;;20.37;63.57;100658.44;10394017;28;20189;-71
2022/10/28 18:33:55;;;;;;;14.05;4.85;;;;;;;20.33;64.55;100657.97;10411137;28;20325;-70
2022/10/28 18:38:57;;;;;;;8.50;4.10;;;;;;;20.28;64.72;100654.94;10399619;28;20052;-70
2022/10/28 18:44:00;;;;;;;9.75;4.57;;;;;;;20.35;64.92;100664.03;10425580;28;20064;-70
2022/10/28 18:49:04;;;;;;;;;;;;;;;20.33;67.00;100663.38;10420726;28;20049;-69
2022/10/28 18:54:05;;;;;;;10.33;4.63;;;;;;;20.35;66.35;100660.50;10413827;28;19929;-67
2022/10/28 18:59:06;;;;;;;9.52;5.72;;;;;;;20.35;66.23;100671.31;10393396;28;20052;-71
2022/10/28 19:04:08;;;;;;;11.02;4.55;;;;;;;20.32;66.37;100683.31;10393838;28;20048;-71
2022/10/28 19:09:09;;;;;;;14.27;5.35;;;;;;;20.33;67.58;100663.38;10391311;28;20065;-71
2022/10/28 19:14:10;;;;;;;10.95;4.60;;;;;;;20.37;65.88;100664.72;10384832;28;20053;-69
2022/10/28 19:19:12;;;;;;;8.88;4.28;;;;;;;20.38;67.09;100666.38;10392485;28;20092;-70
2022/10/28 19:24:13;;;;;;;10.05;5.65;;;;;;;20.30;67.56;100652.91;10418355;28;20143;-69
2022/10/28 19:29:14;;;;;;;12.55;5.88;;;;;;;20.34;67.77;100670.44;10420069;28;20133;-70
2022/10/28 19:34:16;;;;;;;8.40;6.85;;;;;;;20.30;67.98;100669.97;10416624;28;20150;-70
2022/10/28 19:39:17;;;;;;;12.00;7.43;;;;;;;20.27;67.88;100680.31;10409682;28;20059;-70
2022/10/28 19:44:18;;;;;;;15.18;7.03;;;;;;;20.25;68.62;100677.78;10409068;28;20157;-69
2022/10/28 19:49:20;;;;;;;13.55;7.05;;;;;;;20.19;67.72;100672.22;10394256;28;20041;-73
2022/10/28 19:54:26;;;;;;;13.98;7.10;;;;;;;20.12;67.59;100682.91;10354515;28;20631;-69
2022/10/28 19:59:30;;;;;;;11.27;6.90;;;;;;;20.04;67.89;100686.50;10406509;28;20871;-73
2022/10/28 20:04:39;;;;;;;9.02;5.57;;;;;;;20.04;67.76;100685.63;10383507;28;20051;-71
2022/10/28 20:09:40;;;;;;;12.00;6.50;;;;;;;20.00;68.23;100695.97;10376613;28;20056;-71
2022/10/28 20:14:45;;;;;;;14.30;6.40;;;;;;;19.94;68.78;100693.97;10272755;28;20377;-69
2022/10/28 20:19:52;;;;;;;13.27;6.00;;;;;;;19.89;69.18;100699.88;10356919;28;20102;-71
2022/10/28 20:24:53;;;;;;;8.05;5.72;;;;;;;19.88;69.21;100708.16;10385809;28;20428;-71
2022/10/28 20:30:02;;;;;;;14.35;5.63;;;;;;;19.77;69.87;100710.22;10369614;28;20048;-72
2022/10/28 20:35:05;;;;;;;9.93;5.35;;;;;;;19.66;70.21;100710.53;10342619;28;20710;-72
2022/10/28 20:40:10;;;;;;;9.25;6.13;;;;;;;19.64;70.75;100717.13;10379892;28;20079;-72
2022/10/28 20:45:11;;;;;;;10.60;5.25;;;;;;;19.58;70.64;100718.66;10314012;28;20050;-72
2022/10/28 20:50:15;;;;;;;9.88;5.25;;;;;;;19.51;70.86;100717.66;10263318;28;20056;-71
2022/10/28 20:55:17;;;;;;;9.45;5.88;;;;;;;19.45;72.03;100718.34;10394114;28;20124;-70
2022/10/28 21:00:18;;;;;;;12.57;5.70;;;;;;;19.35;71.93;100724.75;10345649;28;20049;-69
2022/10/28 21:05:19;;;;;;;13.70;6.43;;;;;;;19.19;73.29;100727.47;10330879;28;20060;-71
2022/10/28 21:10:21;;;;;;;12.02;5.53;;;;;;;19.05;73.50;100726.25;10364737;28;20060;-69
2022/10/28 21:15:22;;;;;;;10.23;5.80;;;;;;;19.00;73.85;100721.34;10370106;28;20082;-71
2022/10/28 21:20:23;;;;;;;16.15;7.93;;;;;;;18.88;74.45;100725.41;10388249;28;21785;-70
2022/10/28 21:25:25;;;;;;;13.70;6.85;;;;;;;18.91;74.19;100725.06;10409369;28;20189;-71
2022/10/28 21:30:27;;;;;;;13.02;6.30;;;;;;;18.85;74.79;100731.97;10395259;28;20703;-70
2022/10/28 21:35:29;;;;;;;10.95;6.10;;;;;;;18.81;74.62;100737.81;10412855;28;20052;-71
2022/10/28 21:40:30;;;;;;;13.48;6.07;;;;;;;18.81;74.48;100748.63;10409471;28;20065;-70
2022/10/28 21:45:32;;;;;;;9.93;6.07;;;;;;;18.75;74.35;100741.19;10411585;28;20052;-71
2022/10/28 21:50:33;;;;;;;10.65;6.32;;;;;;;18.74;75.09;100751.13;10405722;28;20059;-71
2022/10/28 21:55:34;;;;;;;10.82;6.75;;;;;;;18.70;74.99;100753.31;10410224;28;20059;-69
2022/10/28 22:00:48;;;;;;;10.25;5.82;;;;;;;18.63;75.50;100748.72;10413131;28;20172;-70
2022/10/28 22:05:50;;;;;;;10.82;6.15;;;;;;;18.57;75.29;100763.75;10409281;28;20064;-73
2022/10/28 22:11:04;;;;;;;11.07;6.45;;;;;;;18.53;75.36;100762.38;10422634;28;20053;-72
2022/10/28 22:16:09;;;;;;;11.55;6.47;;;;;;;18.41;75.88;100767.22;10428386;28;20064;-72
2022/10/28 22:21:24;;;;;;;9.35;6.50;;;;;;;18.20;76.88;100773.84;10432665;28;20503;-71
2022/10/28 22:26:28;;;;;;;10.98;6.93;;;;;;;18.14;77.18;100769.09;10414362;28;20699;-72
2022/10/28 22:31:31;;;;;;;14.02;7.90;;;;;;;18.13;77.35;100780.03;10409471;28;20045;-74
2022/10/28 22:36:33;;;;;;;9.97;6.67;;;;;;;18.09;77.44;100759.81;10431039;28;20048;-74
2022/10/28 22:41:34;;;;;;;11.45;7.43;;;;;;;18.01;77.44;100756.09;10425995;28;20053;-73
2022/10/28 22:46:35;;;;;;;12.98;8.30;;;;;;;18.04;77.58;100756.75;10414383;28;20056;-72
2022/10/28 22:51:37;;;;;;;13.70;7.63;;;;;;;17.94;77.38;100762.25;10438451;28;20048;-74
2022/10/28 22:56:39;;;;;;;9.88;6.78;;;;;;;17.79;78.01;100752.03;10429623;28;20068;-73
2022/10/28 23:01:40;;;;;;;12.70;7.20;;;;;;;17.76;78.42;100760.44;10422034;28;20052;-72
2022/10/28 23:06:42;;;;;;;12.18;7.10;;;;;;;17.84;77.97;100756.94;10427840;28;20048;-71
2022/10/28 23:11:43;;;;;;;13.40;7.43;;;;;;;17.84;77.83;100754.25;10412233;28;20956;-73
2022/10/28 23:16:47;;;;;;;15.20;7.47;;;;;;;17.85;77.92;100759.47;10414831;28;20055;-74
2022/10/28 23:21:48;;;;;;;;;;;;;;;17.82;77.57;100753.59;10428288;28;20063;-72